createdAt,value
2023-05-11T00:00:46.372Z,97938.52
2023-05-11T00:03:16.785Z,97939.23
2023-05-11T00:05:48.432Z,97942.73
2023-05-11T00:08:17.238Z,97941.95
2023-05-11T00:10:48.988Z,97939.70
2023-05-11T00:13:17.328Z,97945.75
2023-05-11T00:15:45.539Z,97946.00
2023-05-11T00:18:13.789Z,97943.95
2023-05-11T00:20:41.770Z,97942.63
2023-05-11T00:23:09.753Z,97936.49
2023-05-11T00:25:39.233Z,97940.66
2023-05-11T00:28:07.696Z,97944.70
2023-05-11T00:30:35.958Z,97939.27
2023-05-11T00:33:04.549Z,97940.08
2023-05-11T00:35:32.907Z,97941.59
2023-05-11T00:38:00.972Z,97943.63
2023-05-11T00:40:31.817Z,97943.77
2023-05-11T00:43:01.175Z,97948.02
2023-05-11T00:45:30.247Z,97948.48
2023-05-11T00:47:58.652Z,97946.89
2023-05-11T00:50:27.657Z,97948.48
2023-05-11T00:52:56.076Z,97950.52
2023-05-11T00:55:24.759Z,97951.05
2023-05-11T00:57:53.050Z,97953.46
2023-05-11T01:00:21.899Z,97955.37
2023-05-11T01:02:50.137Z,97960.05
2023-05-11T01:05:18.401Z,97963.23
2023-05-11T01:08:06.936Z,97962.98
2023-05-11T01:10:46.045Z,97962.48
2023-05-11T01:13:26.236Z,97964.64
2023-05-11T01:15:58.495Z,97968.13
2023-05-11T01:18:38.469Z,97966.39
2023-05-11T01:21:15.445Z,97964.58
2023-05-11T01:24:21.943Z,97966.25
2023-05-11T01:27:20.761Z,97970.09
2023-05-11T01:30:26.256Z,97971.19
2023-05-11T01:32:58.153Z,97972.59
2023-05-11T01:35:29.027Z,97972.77
2023-05-11T01:37:59.954Z,97970.89
2023-05-11T01:40:32.153Z,97971.79
2023-05-11T01:43:03.957Z,97973.09
2023-05-11T01:45:37.062Z,97969.52
2023-05-11T01:48:12.024Z,97970.91
2023-05-11T01:50:41.243Z,97970.05
2023-05-11T01:53:12.320Z,97977.48
2023-05-11T01:55:42.417Z,97984.23
2023-05-11T01:58:13.357Z,97980.45
2023-05-11T02:00:43.375Z,97980.08
2023-05-11T02:03:14.211Z,97980.73
2023-05-11T02:05:43.925Z,97979.88
2023-05-11T02:08:14.103Z,97979.91
2023-05-11T02:10:42.712Z,97981.55
2023-05-11T02:13:15.838Z,97976.59
2023-05-11T02:15:45.681Z,97979.44
2023-05-11T02:18:16.238Z,97977.02
2023-05-11T02:20:47.439Z,97975.54
2023-05-11T02:23:17.541Z,97981.38
2023-05-11T02:25:49.931Z,97978.68
2023-05-11T02:28:19.171Z,97982.86
2023-05-11T02:30:50.342Z,97983.33
2023-05-11T02:33:24.350Z,97983.15
2023-05-11T02:35:55.923Z,97986.35
2023-05-11T02:38:30.838Z,97983.36
2023-05-11T02:41:02.182Z,97986.67
2023-05-11T02:43:35.613Z,97984.10
2023-05-11T02:46:07.052Z,97985.48
2023-05-11T02:48:41.311Z,97987.88
2023-05-11T02:51:12.968Z,97990.02
2023-05-11T02:53:47.369Z,97991.03
2023-05-11T02:56:16.046Z,97992.72
2023-05-11T02:58:44.460Z,97990.58
2023-05-11T03:01:20.027Z,97989.14
2023-05-11T03:03:48.613Z,97988.30
2023-05-11T03:06:16.818Z,97996.26
2023-05-11T03:08:45.218Z,97997.77
2023-05-11T03:11:15.529Z,98001.10
2023-05-11T03:13:45.651Z,98000.96
2023-05-11T03:16:15.890Z,97999.96
2023-05-11T03:18:45.036Z,98004.43
2023-05-11T03:21:16.750Z,98003.73
2023-05-11T03:23:46.144Z,98003.27
2023-05-11T03:26:18.815Z,97999.44
2023-05-11T03:28:48.956Z,98001.93
2023-05-11T03:31:19.002Z,97997.86
2023-05-11T03:33:47.190Z,98000.25
2023-05-11T03:36:16.113Z,98002.56
2023-05-11T03:38:47.490Z,98006.64
2023-05-11T03:41:18.305Z,98003.98
2023-05-11T03:43:51.918Z,98004.13
2023-05-11T03:46:23.008Z,98001.85
2023-05-11T03:48:51.723Z,98004.95
2023-05-11T03:51:23.064Z,98006.81
2023-05-11T03:53:51.260Z,98007.85
2023-05-11T03:56:19.960Z,98007.88
2023-05-11T03:58:48.995Z,98009.05
2023-05-11T04:01:17.098Z,98010.20
2023-05-11T04:03:52.858Z,98008.01
2023-05-11T04:06:22.464Z,98011.55
2023-05-11T04:09:20.311Z,98013.31
2023-05-11T04:11:48.951Z,98011.81
2023-05-11T04:14:18.228Z,98011.16
2023-05-11T04:16:46.783Z,98012.80
2023-05-11T04:19:16.404Z,98012.58
2023-05-11T04:21:44.490Z,98013.23
2023-05-11T04:24:12.952Z,98011.30
2023-05-11T04:26:41.580Z,98014.35
2023-05-11T04:29:12.234Z,98013.02
2023-05-11T04:31:41.086Z,98011.70
2023-05-11T04:34:10.863Z,98012.67
2023-05-11T04:36:39.524Z,98009.75
2023-05-11T04:39:08.007Z,98011.03
2023-05-11T04:41:38.053Z,98015.48
2023-05-11T04:44:07.016Z,98014.51
2023-05-11T04:46:35.914Z,98011.10
2023-05-11T04:49:06.091Z,98010.28
2023-05-11T04:51:34.547Z,98012.81
2023-05-11T04:54:02.500Z,98007.75
2023-05-11T04:56:30.559Z,98008.62
2023-05-11T04:58:58.968Z,98006.86
2023-05-11T05:01:28.140Z,98007.61
2023-05-11T05:03:57.128Z,98008.02
2023-05-11T05:06:28.173Z,98007.14
2023-05-11T05:08:56.297Z,98007.68
2023-05-11T05:11:24.317Z,98008.30
2023-05-11T05:13:52.317Z,98007.40
2023-05-11T05:16:21.383Z,98006.86
2023-05-11T05:18:49.857Z,98007.06
2023-05-11T05:21:19.866Z,98006.22
2023-05-11T05:23:49.386Z,98003.36
2023-05-11T05:26:17.528Z,98004.71
2023-05-11T05:28:47.034Z,98004.77
2023-05-11T05:31:15.825Z,98000.59
2023-05-11T05:33:44.150Z,97998.98
2023-05-11T05:36:12.440Z,98005.21
2023-05-11T05:38:41.076Z,97997.30
2023-05-11T05:41:09.277Z,97999.91
2023-05-11T05:43:40.439Z,97999.83
2023-05-11T05:46:08.782Z,97999.04
2023-05-11T05:48:37.613Z,97999.64
2023-05-11T05:51:05.757Z,97997.11
2023-05-11T05:53:35.116Z,97993.54
2023-05-11T05:56:04.616Z,97993.05
2023-05-11T05:58:32.795Z,97986.77
2023-05-11T06:01:04.503Z,97984.44
2023-05-11T06:03:35.173Z,97983.22
2023-05-11T06:06:06.951Z,97983.10
2023-05-11T06:08:34.973Z,97980.46
2023-05-11T06:11:03.370Z,97984.42
2023-05-11T06:13:40.870Z,97985.52
2023-05-11T06:16:08.933Z,97981.88
2023-05-11T06:18:37.027Z,97980.73
2023-05-11T06:21:06.977Z,97979.48
2023-05-11T06:23:35.814Z,97976.63
2023-05-11T06:26:04.335Z,97979.03
2023-05-11T06:28:33.679Z,97982.31
2023-05-11T06:31:05.129Z,97977.55
2023-05-11T06:33:36.764Z,97984.31
2023-05-11T06:36:07.730Z,97983.27
2023-05-11T06:38:36.768Z,97985.39
2023-05-11T06:41:07.972Z,97982.16
2023-05-11T06:43:38.241Z,97982.88
2023-05-11T06:46:07.267Z,97982.21
2023-05-11T06:48:36.313Z,97980.16
2023-05-11T06:51:05.197Z,97979.05
2023-05-11T06:53:34.374Z,97979.61
2023-05-11T06:56:03.944Z,97981.48
2023-05-11T06:58:32.806Z,97977.13
2023-05-11T07:01:02.451Z,97977.46
2023-05-11T07:03:34.775Z,97978.39
2023-05-11T07:06:03.598Z,97974.09
2023-05-11T07:08:31.912Z,97971.65
2023-05-11T07:11:00.641Z,97969.27
2023-05-11T07:13:29.892Z,97969.39
2023-05-11T07:15:58.016Z,97972.49
2023-05-11T07:18:27.137Z,97971.92
2023-05-11T07:20:55.872Z,97966.09
2023-05-11T07:23:28.472Z,97967.89
2023-05-11T07:25:58.462Z,97965.86
2023-05-11T07:28:26.692Z,97962.02
2023-05-11T07:31:00.160Z,97961.61
2023-05-11T07:33:28.318Z,97959.02
2023-05-11T07:35:58.800Z,97959.84
2023-05-11T07:38:27.940Z,97966.11
2023-05-11T07:40:56.505Z,97960.52
2023-05-11T07:43:26.805Z,97965.88
2023-05-11T07:45:55.832Z,97967.94
2023-05-11T07:48:25.542Z,97966.22
2023-05-11T07:50:56.421Z,97962.90
2023-05-11T07:53:24.788Z,97960.90
2023-05-11T07:55:53.954Z,97962.27
2023-05-11T07:58:23.640Z,97960.94
2023-05-11T08:00:52.722Z,97962.14
2023-05-11T08:03:21.000Z,97962.11
2023-05-11T08:05:52.413Z,97960.14
2023-05-11T08:08:21.705Z,97956.65
2023-05-11T08:10:51.505Z,97954.33
2023-05-11T08:13:22.228Z,97953.72
2023-05-11T08:15:57.022Z,97952.09
2023-05-11T08:18:26.168Z,97952.31
2023-05-11T08:20:55.028Z,97950.14
2023-05-11T08:23:23.924Z,97945.40
2023-05-11T08:25:53.962Z,97950.29
2023-05-11T08:28:23.043Z,97945.68
2023-05-11T08:30:59.404Z,97943.75
2023-05-11T08:36:13.295Z,97945.29
2023-05-11T08:41:37.626Z,97940.35
2023-05-11T08:44:21.283Z,97940.05
2023-05-11T08:47:05.939Z,97933.60
2023-05-11T08:49:46.706Z,97930.64
2023-05-11T08:52:20.799Z,97931.73
2023-05-11T08:54:53.421Z,97926.49
2023-05-11T08:57:33.048Z,97921.23
2023-05-11T09:00:07.789Z,97917.29
2023-05-11T09:02:40.226Z,97912.73
2023-05-11T09:05:28.360Z,97911.49
2023-05-11T09:08:05.542Z,97910.61
2023-05-11T09:10:36.814Z,97914.61
2023-05-11T09:13:05.959Z,97914.72
2023-05-11T09:15:37.819Z,97913.01
2023-05-11T09:18:08.027Z,97913.63
2023-05-11T09:20:36.815Z,97912.73
2023-05-11T09:23:07.616Z,97908.21
2023-05-11T09:25:39.907Z,97904.42
2023-05-11T09:28:15.751Z,97893.12
2023-05-11T09:30:44.963Z,97896.55
2023-05-11T09:33:23.678Z,97896.59
2023-05-11T09:35:52.873Z,97897.38
2023-05-11T09:38:23.237Z,97891.07
2023-05-11T09:40:57.102Z,97883.41
2023-05-11T09:43:28.298Z,97883.77
2023-05-11T09:46:03.616Z,97882.15
2023-05-11T09:48:38.301Z,97886.79
2023-05-11T09:51:29.636Z,97886.67
2023-05-11T09:54:57.153Z,97883.26
2023-05-11T09:57:34.255Z,97881.18
2023-05-11T10:00:16.160Z,97872.10
2023-05-11T10:03:06.152Z,97869.27
2023-05-11T10:05:36.725Z,97865.23
2023-05-11T10:08:06.317Z,97861.75
2023-05-11T10:10:35.031Z,97862.66
2023-05-11T10:13:04.632Z,97868.02
2023-05-11T10:15:35.954Z,97863.48
2023-05-11T10:18:04.767Z,97856.17
2023-05-11T10:20:42.742Z,97843.80
2023-05-11T10:23:17.805Z,97841.34
2023-05-11T10:25:49.333Z,97847.50
2023-05-11T10:28:18.317Z,97842.33
2023-05-11T10:30:49.018Z,97842.38
2023-05-11T10:33:18.435Z,97833.92
2023-05-11T10:35:46.941Z,97837.10
2023-05-11T10:38:16.580Z,97835.48
2023-05-11T10:40:47.098Z,97829.87
2023-05-11T10:43:23.761Z,97829.45
2023-05-11T10:46:19.196Z,97829.51
2023-05-11T10:49:13.006Z,97832.75
2023-05-11T10:52:09.763Z,97829.43
2023-05-11T10:54:47.302Z,97826.52
2023-05-11T10:57:36.058Z,97818.20
2023-05-11T11:00:21.068Z,97811.53
2023-05-11T11:02:51.401Z,97816.58
2023-05-11T11:05:36.717Z,97818.45
2023-05-11T11:08:09.687Z,97819.02
2023-05-11T11:10:44.212Z,97818.52
2023-05-11T11:13:14.828Z,97820.11
2023-05-11T11:15:54.508Z,97813.70
2023-05-11T11:18:29.318Z,97820.92
2023-05-11T11:20:59.792Z,97826.88
2023-05-11T11:23:41.604Z,97820.11
2023-05-11T11:26:17.187Z,97819.05
2023-05-11T11:28:57.317Z,97817.67
2023-05-11T11:31:39.096Z,97819.20
2023-05-11T11:34:30.065Z,97819.60
2023-05-11T11:36:59.083Z,97819.52
2023-05-11T11:39:30.645Z,97815.46
2023-05-11T11:42:05.552Z,97815.05
2023-05-11T11:44:40.322Z,97821.99
2023-05-11T11:47:23.810Z,97816.68
2023-05-11T11:49:54.367Z,97812.77
2023-05-11T11:52:30.085Z,97817.04
2023-05-11T11:58:47.216Z,97809.64
2023-05-11T12:01:27.035Z,97807.06
2023-05-11T12:04:06.612Z,97805.61
2023-05-11T12:06:41.919Z,97805.92
2023-05-11T12:09:10.624Z,97803.77
2023-05-11T12:11:44.918Z,97801.96
2023-05-11T12:14:15.857Z,97798.25
2023-05-11T12:17:02.354Z,97795.51
2023-05-11T12:19:45.485Z,97796.56
2023-05-11T12:22:23.218Z,97792.92
2023-05-11T12:24:59.507Z,97793.10
2023-05-11T12:27:31.534Z,97794.70
2023-05-11T12:30:32.689Z,97794.90
2023-05-11T12:33:15.412Z,97793.27
2023-05-11T12:35:44.562Z,97786.72
2023-05-11T12:38:14.361Z,97781.80
2023-05-11T12:41:08.391Z,97778.64
2023-05-11T12:43:58.729Z,97773.07
2023-05-11T12:46:30.499Z,97771.66
2023-05-11T12:49:01.371Z,97764.42
2023-05-11T12:51:50.522Z,97767.89
2023-05-11T12:54:40.644Z,97769.11
2023-05-11T12:57:25.447Z,97760.75
2023-05-11T13:00:10.730Z,97763.64
2023-05-11T13:02:53.074Z,97763.17
2023-05-11T13:05:28.553Z,97764.94
2023-05-11T13:08:20.560Z,97758.34
2023-05-11T13:10:53.747Z,97756.77
2023-05-11T13:13:29.169Z,97758.63
2023-05-11T13:15:57.699Z,97753.55
2023-05-11T13:18:26.090Z,97753.45
2023-05-11T13:21:09.963Z,97753.48
2023-05-11T13:23:49.914Z,97751.59
2023-05-11T13:26:33.236Z,97750.10
2023-05-11T13:29:28.914Z,97748.30
2023-05-11T13:32:20.347Z,97750.46
2023-05-11T13:34:50.205Z,97752.92
2023-05-11T13:37:18.961Z,97747.85
2023-05-11T13:39:55.893Z,97746.60
2023-05-11T13:42:39.127Z,97748.01
2023-05-11T13:45:10.963Z,97746.27
2023-05-11T13:47:44.009Z,97747.29
2023-05-11T13:50:17.015Z,97741.05
2023-05-11T13:52:48.165Z,97736.44
2023-05-11T13:55:17.203Z,97731.81
2023-05-11T13:57:47.533Z,97730.42
2023-05-11T14:00:23.704Z,97729.14
2023-05-11T14:02:54.179Z,97731.95
2023-05-11T14:05:27.468Z,97733.70
2023-05-11T14:07:56.042Z,97731.27
2023-05-11T14:10:27.549Z,97733.89
2023-05-11T14:12:57.311Z,97729.59
2023-05-11T14:15:27.437Z,97730.34
2023-05-11T14:18:04.072Z,97729.42
2023-05-11T14:20:38.716Z,97730.62
2023-05-11T14:23:09.056Z,97731.36
2023-05-11T14:25:37.930Z,97725.06
2023-05-11T14:28:06.941Z,97718.80
2023-05-11T14:30:36.443Z,97722.36
2023-05-11T14:33:04.956Z,97729.20
2023-05-11T14:35:33.790Z,97726.20
2023-05-11T14:38:03.133Z,97729.30
2023-05-11T14:40:32.957Z,97729.42
2023-05-11T14:43:02.657Z,97734.23
2023-05-11T14:45:31.205Z,97733.55
2023-05-11T14:48:00.870Z,97733.02
2023-05-11T14:50:29.220Z,97729.65
2023-05-11T14:52:59.289Z,97730.85
2023-05-11T14:55:27.757Z,97730.77
2023-05-11T14:57:56.589Z,97727.33
2023-05-11T15:00:24.867Z,97728.67
2023-05-11T15:02:56.111Z,97729.59
2023-05-11T15:05:25.360Z,97737.61
2023-05-11T15:07:55.676Z,97733.38
2023-05-11T15:10:25.794Z,97732.06
2023-05-11T15:12:56.757Z,97733.15
2023-05-11T15:15:25.957Z,97732.23
2023-05-11T15:17:54.069Z,97732.40
2023-05-11T15:20:25.032Z,97731.84
2023-05-11T15:22:53.089Z,97731.64
2023-05-11T15:25:21.556Z,97731.46
2023-05-11T15:27:49.902Z,97728.78
2023-05-11T15:30:18.733Z,97727.46
2023-05-11T15:32:47.014Z,97727.30
2023-05-11T15:35:16.988Z,97725.10
2023-05-11T15:37:45.827Z,97728.94
2023-05-11T15:40:16.395Z,97725.61
2023-05-11T15:42:44.628Z,97731.27
2023-05-11T15:45:12.726Z,97734.02
2023-05-11T15:47:40.948Z,97734.42
2023-05-11T15:50:09.425Z,97734.96
2023-05-11T15:52:37.455Z,97736.95
2023-05-11T15:55:06.571Z,97738.59
2023-05-11T15:57:36.501Z,97735.07
2023-05-11T16:00:06.590Z,97734.90
2023-05-11T16:02:36.295Z,97736.43
2023-05-11T16:05:04.706Z,97732.96
2023-05-11T16:07:33.896Z,97731.73
2023-05-11T16:10:02.003Z,97728.69
2023-05-11T16:12:30.422Z,97735.23
2023-05-11T16:14:59.080Z,97740.17
2023-05-11T16:17:31.257Z,97739.16
2023-05-11T16:20:03.602Z,97740.30
2023-05-11T16:22:32.719Z,97740.11
2023-05-11T16:25:02.912Z,97738.40
2023-05-11T16:27:32.288Z,97740.52
2023-05-11T16:30:06.006Z,97744.02
2023-05-11T16:32:44.147Z,97743.03
2023-05-11T16:35:13.207Z,97745.22
2023-05-11T16:37:42.361Z,97741.96
2023-05-11T16:40:11.673Z,97746.20
2023-05-11T16:42:42.514Z,97747.27
2023-05-11T16:45:12.789Z,97745.67
2023-05-11T16:47:45.823Z,97748.46
2023-05-11T16:50:15.725Z,97753.05
2023-05-11T16:52:44.316Z,97757.59
2023-05-11T16:55:18.135Z,97757.80
2023-05-11T16:57:47.466Z,97763.11
2023-05-11T17:00:16.375Z,97761.48
2023-05-11T17:02:45.044Z,97766.78
2023-05-11T17:05:15.327Z,97768.41
2023-05-11T17:07:46.295Z,97769.10
2023-05-11T17:10:20.421Z,97771.96
2023-05-11T17:12:56.804Z,97772.84
2023-05-11T17:15:26.758Z,97772.36
2023-05-11T17:17:55.207Z,97775.17
2023-05-11T17:20:40.252Z,97774.33
2023-05-11T17:23:08.386Z,97776.11
2023-05-11T17:25:38.023Z,97778.30
2023-05-11T17:28:06.608Z,97779.71
2023-05-11T17:30:47.181Z,97779.38
2023-05-11T17:33:17.491Z,97780.77
2023-05-11T17:35:45.815Z,97782.94
2023-05-11T17:38:14.251Z,97787.46
2023-05-11T17:40:42.479Z,97788.30
2023-05-11T17:43:12.740Z,97787.70
2023-05-11T17:45:47.178Z,97787.11
2023-05-11T17:48:15.745Z,97788.05
2023-05-11T17:50:44.342Z,97791.93
2023-05-11T17:53:13.540Z,97793.21
2023-05-11T17:55:43.466Z,97798.68
2023-05-11T17:58:12.026Z,97798.80
2023-05-11T18:00:40.739Z,97804.48
2023-05-11T18:03:09.200Z,97806.56
2023-05-11T18:05:48.705Z,97807.63
2023-05-11T18:08:17.606Z,97811.70
2023-05-11T18:10:45.826Z,97814.27
2023-05-11T18:13:17.238Z,97816.30
2023-05-11T18:15:47.537Z,97817.80
2023-05-11T18:18:16.294Z,97817.28
2023-05-11T18:20:47.031Z,97816.86
2023-05-11T18:23:16.689Z,97820.40
2023-05-11T18:25:45.276Z,97826.92
2023-05-11T18:28:13.354Z,97830.79
2023-05-11T18:30:41.340Z,97835.59
2023-05-11T18:33:09.520Z,97836.39
2023-05-11T18:35:39.131Z,97840.17
2023-05-11T18:38:08.038Z,97844.87
2023-05-11T18:40:36.252Z,97848.59
2023-05-11T18:43:04.543Z,97851.80
2023-05-11T18:45:35.168Z,97856.52
2023-05-11T18:48:04.745Z,97863.28
2023-05-11T18:50:32.888Z,97864.77
2023-05-11T18:53:02.203Z,97869.64
2023-05-11T18:55:35.384Z,97870.73
2023-05-11T18:58:09.247Z,97878.21
2023-05-11T19:00:39.778Z,97877.85
2023-05-11T19:03:10.398Z,97880.88
2023-05-11T19:05:38.710Z,97886.23
2023-05-11T19:08:07.314Z,97888.77
2023-05-11T19:10:39.701Z,97889.52
2023-05-11T19:13:08.823Z,97890.03
2023-05-11T19:15:37.910Z,97890.95
2023-05-11T19:18:08.036Z,97888.02
2023-05-11T19:20:37.624Z,97888.05
2023-05-11T19:23:06.820Z,97887.52
2023-05-11T19:25:34.974Z,97889.76
2023-05-11T19:28:03.464Z,97893.62
2023-05-11T19:30:31.648Z,97887.89
2023-05-11T19:32:59.845Z,97891.30
2023-05-11T19:35:28.674Z,97893.16
2023-05-11T19:37:56.790Z,97891.48
2023-05-11T19:42:56.443Z,97891.92
2023-05-11T19:45:24.900Z,97890.80
2023-05-11T19:47:53.298Z,97893.20
2023-05-11T19:50:24.685Z,97896.52
2023-05-11T19:52:53.093Z,97898.54
2023-05-11T19:55:22.667Z,97898.43
2023-05-11T19:57:51.907Z,97899.14
2023-05-11T20:00:25.636Z,97899.02
2023-05-11T20:02:54.433Z,97901.48
2023-05-11T20:05:22.724Z,97898.36
2023-05-11T20:07:50.897Z,97899.92
2023-05-11T20:10:19.106Z,97902.98
2023-05-11T20:12:48.358Z,97901.24
2023-05-11T20:15:16.460Z,97903.45
2023-05-11T20:17:44.761Z,97903.50
2023-05-11T20:20:13.490Z,97901.10
2023-05-11T20:22:41.723Z,97901.55
2023-05-11T20:25:17.817Z,97904.88
2023-05-11T20:27:47.027Z,97906.17
2023-05-11T20:30:15.840Z,97906.33
2023-05-11T20:35:15.221Z,97907.18
2023-05-11T20:37:43.204Z,97908.45
2023-05-11T20:40:12.958Z,97911.34
2023-05-11T20:42:41.359Z,97910.69
2023-05-11T20:45:09.772Z,97911.45
2023-05-11T20:47:38.064Z,97913.36
2023-05-11T20:50:08.649Z,97911.60
2023-05-11T20:52:37.469Z,97916.04
2023-05-11T20:55:07.274Z,97918.65
2023-05-11T20:57:35.446Z,97918.35
2023-05-11T21:00:07.459Z,97915.90
2023-05-11T21:02:36.136Z,97918.12
2023-05-11T21:05:04.519Z,97920.23
2023-05-11T21:07:32.642Z,97919.52
2023-05-11T21:10:02.121Z,97916.86
2023-05-11T21:12:30.303Z,97916.23
2023-05-11T21:14:58.356Z,97920.42
2023-05-11T21:17:26.331Z,97917.92
2023-05-11T21:19:54.451Z,97920.19
2023-05-11T21:22:22.605Z,97925.94
2023-05-11T21:24:50.692Z,97927.86
2023-05-11T21:27:18.796Z,97929.23
2023-05-11T21:29:46.814Z,97926.25
2023-05-11T21:32:15.074Z,97922.65
2023-05-11T21:34:43.962Z,97929.36
2023-05-11T21:37:14.691Z,97925.31
2023-05-11T21:39:42.586Z,97926.30
2023-05-11T21:42:10.541Z,97930.25
2023-05-11T21:44:38.754Z,97938.39
2023-05-11T21:47:07.471Z,97939.73
2023-05-11T21:49:36.908Z,97942.15
2023-05-11T21:52:05.986Z,97940.06
2023-05-11T21:54:34.587Z,97945.46
2023-05-11T21:57:03.764Z,97950.20
2023-05-11T21:59:31.887Z,97949.71
2023-05-11T22:01:59.951Z,97952.46
2023-05-11T22:04:28.120Z,97952.02
2023-05-11T22:07:01.485Z,97955.77
2023-05-11T22:09:31.517Z,97952.55
2023-05-11T22:11:59.784Z,97953.02
2023-05-11T22:14:27.773Z,97953.80
2023-05-11T22:16:55.876Z,97953.20
2023-05-11T22:19:23.960Z,97955.92
2023-05-11T22:21:52.235Z,97952.89
2023-05-11T22:24:21.670Z,97957.56
2023-05-11T22:26:49.942Z,97956.10
2023-05-11T22:29:17.906Z,97956.94
2023-05-11T22:31:46.448Z,97956.45
2023-05-11T22:34:15.083Z,97958.61
2023-05-11T22:36:43.186Z,97961.18
2023-05-11T22:39:11.554Z,97961.10
2023-05-11T22:41:40.807Z,97958.64
2023-05-11T22:44:08.967Z,97958.23
2023-05-11T22:46:37.331Z,97956.52
2023-05-11T22:49:06.176Z,97957.09
2023-05-11T22:51:34.421Z,97957.55
2023-05-11T22:54:02.384Z,97956.08
2023-05-11T22:56:31.332Z,97956.59
2023-05-11T22:59:01.874Z,97955.52
2023-05-11T23:01:30.287Z,97950.67
2023-05-11T23:03:58.450Z,97952.09
2023-05-11T23:06:26.577Z,97953.38
2023-05-11T23:08:54.608Z,97952.48
2023-05-11T23:11:23.129Z,97954.20
2023-05-11T23:13:51.120Z,97951.13
2023-05-11T23:16:19.658Z,97952.98
2023-05-11T23:18:48.044Z,97956.45
2023-05-11T23:21:16.205Z,97952.17
2023-05-11T23:23:44.287Z,97951.48
2023-05-11T23:26:12.652Z,97951.29
2023-05-11T23:28:41.435Z,97951.56
2023-05-11T23:31:09.911Z,97952.67
2023-05-11T23:33:38.020Z,97952.41
2023-05-11T23:36:06.332Z,97949.63
2023-05-11T23:38:34.237Z,97947.98
2023-05-11T23:41:02.813Z,97949.42
2023-05-11T23:43:31.490Z,97946.86
2023-05-11T23:45:59.427Z,97950.13
2023-05-11T23:48:27.348Z,97948.00
2023-05-11T23:50:55.511Z,97947.41
2023-05-11T23:53:23.491Z,97944.60
2023-05-11T23:55:51.521Z,97943.89
2023-05-11T23:58:19.483Z,97944.80
